sensor_id;sensor_type;location;lat;lon;timestamp;pressure;altitude;pressure_sealevel;temperature;humidity
62057;BME280;48016;50.284;18.860;2022-10-17T00:01:24;99160.99;;;12.41;81.24
62057;BME280;48016;50.284;18.860;2022-10-17T00:03:50;99164.45;;;12.40;81.43
62057;BME280;48016;50.284;18.860;2022-10-17T00:06:17;99169.05;;;12.39;81.53
62057;BME280;48016;50.284;18.860;2022-10-17T00:08:43;99168.35;;;12.40;81.62
62057;BME280;48016;50.284;18.860;2022-10-17T00:11:19;99171.53;;;12.42;81.62
62057;BME280;48016;50.284;18.860;2022-10-17T00:13:48;99168.04;;;12.43;81.61
62057;BME280;48016;50.284;18.860;2022-10-17T00:16:24;99175.87;;;12.44;81.69
62057;BME280;48016;50.284;18.860;2022-10-17T00:18:51;99174.29;;;12.44;81.84
62057;BME280;48016;50.284;18.860;2022-10-17T00:21:19;99178.27;;;12.45;81.75
62057;BME280;48016;50.284;18.860;2022-10-17T00:23:46;99183.05;;;12.46;81.65
62057;BME280;48016;50.284;18.860;2022-10-17T00:26:14;99181.66;;;12.44;81.55
62057;BME280;48016;50.284;18.860;2022-10-17T00:28:41;99178.88;;;12.43;81.51
62057;BME280;48016;50.284;18.860;2022-10-17T00:31:07;99177.48;;;12.43;81.42
62057;BME280;48016;50.284;18.860;2022-10-17T00:33:34;99176.80;;;12.42;81.43
62057;BME280;48016;50.284;18.860;2022-10-17T00:36:08;99173.38;;;12.40;81.57
62057;BME280;48016;50.284;18.860;2022-10-17T00:38:36;99173.92;;;12.39;81.70
62057;BME280;48016;50.284;18.860;2022-10-17T00:41:02;99176.94;;;12.38;81.78
62057;BME280;48016;50.284;18.860;2022-10-17T00:43:48;99181.05;;;12.37;81.81
62057;BME280;48016;50.284;18.860;2022-10-17T00:46:14;99186.31;;;12.35;81.81
62057;BME280;48016;50.284;18.860;2022-10-17T00:48:41;99192.21;;;12.34;81.79
62057;BME280;48016;50.284;18.860;2022-10-17T00:51:08;99190.97;;;12.34;81.73
62057;BME280;48016;50.284;18.860;2022-10-17T00:53:37;99197.06;;;12.35;81.71
62057;BME280;48016;50.284;18.860;2022-10-17T00:56:04;99192.27;;;12.36;81.74
62057;BME280;48016;50.284;18.860;2022-10-17T00:58:31;99188.80;;;12.37;81.77
62057;BME280;48016;50.284;18.860;2022-10-17T01:00:58;99187.47;;;12.39;81.80
62057;BME280;48016;50.284;18.860;2022-10-17T01:03:24;99186.68;;;12.36;81.89
62057;BME280;48016;50.284;18.860;2022-10-17T01:05:51;99189.41;;;12.34;81.86
62057;BME280;48016;50.284;18.860;2022-10-17T01:08:18;99188.17;;;12.32;81.86
62057;BME280;48016;50.284;18.860;2022-10-17T01:16:08;99191.89;;;12.21;81.94
62057;BME280;48016;50.284;18.860;2022-10-17T01:18:50;99187.73;;;12.19;81.88
62057;BME280;48016;50.284;18.860;2022-10-17T01:21:38;99182.02;;;12.17;82.07
62057;BME280;48016;50.284;18.860;2022-10-17T01:32:23;99186.59;;;12.10;82.36
62057;BME280;48016;50.284;18.860;2022-10-17T01:35:05;99187.95;;;12.09;82.24
62057;BME280;48016;50.284;18.860;2022-10-17T01:37:52;99195.87;;;12.10;82.08
62057;BME280;48016;50.284;18.860;2022-10-17T01:40:29;99200.70;;;12.11;82.13
62057;BME280;48016;50.284;18.860;2022-10-17T01:48:46;99195.41;;;12.20;82.21
62057;BME280;48016;50.284;18.860;2022-10-17T01:51:26;99187.15;;;12.20;82.10
62057;BME280;48016;50.284;18.860;2022-10-17T01:54:04;99186.27;;;12.18;82.11
62057;BME280;48016;50.284;18.860;2022-10-17T01:56:33;99188.16;;;12.16;82.02
62057;BME280;48016;50.284;18.860;2022-10-17T01:59:10;99189.00;;;12.14;81.78
62057;BME280;48016;50.284;18.860;2022-10-17T02:01:40;99189.01;;;12.12;81.79
62057;BME280;48016;50.284;18.860;2022-10-17T02:04:08;99187.00;;;12.09;81.84
62057;BME280;48016;50.284;18.860;2022-10-17T02:06:36;99189.48;;;12.05;82.02
62057;BME280;48016;50.284;18.860;2022-10-17T02:09:24;99195.24;;;12.00;82.25
62057;BME280;48016;50.284;18.860;2022-10-17T02:11:58;99197.96;;;11.97;82.46
62057;BME280;48016;50.284;18.860;2022-10-17T02:17:35;99198.27;;;11.97;82.12
62057;BME280;48016;50.284;18.860;2022-10-17T02:20:36;99193.53;;;11.90;81.97
62057;BME280;48016;50.284;18.860;2022-10-17T02:23:16;99188.45;;;11.81;82.07
62057;BME280;48016;50.284;18.860;2022-10-17T02:31:39;99188.21;;;11.66;82.58
62057;BME280;48016;50.284;18.860;2022-10-17T02:34:12;99190.60;;;11.66;82.54
62057;BME280;48016;50.284;18.860;2022-10-17T02:36:47;99191.77;;;11.65;82.47
62057;BME280;48016;50.284;18.860;2022-10-17T02:39:15;99182.70;;;11.64;82.55
62057;BME280;48016;50.284;18.860;2022-10-17T02:41:43;99181.52;;;11.62;82.36
62057;BME280;48016;50.284;18.860;2022-10-17T02:44:10;99183.03;;;11.56;82.47
62057;BME280;48016;50.284;18.860;2022-10-17T02:46:38;99188.05;;;11.52;82.54
62057;BME280;48016;50.284;18.860;2022-10-17T02:49:14;99193.15;;;11.51;82.65
62057;BME280;48016;50.284;18.860;2022-10-17T02:56:57;99200.05;;;11.52;82.73
62057;BME280;48016;50.284;18.860;2022-10-17T02:59:26;99203.11;;;11.50;82.92
62057;BME280;48016;50.284;18.860;2022-10-17T03:01:54;99210.13;;;11.50;83.09
62057;BME280;48016;50.284;18.860;2022-10-17T03:04:21;99221.48;;;11.49;83.09
62057;BME280;48016;50.284;18.860;2022-10-17T03:06:48;99219.53;;;11.48;83.02
62057;BME280;48016;50.284;18.860;2022-10-17T03:09:15;99220.95;;;11.46;83.00
62057;BME280;48016;50.284;18.860;2022-10-17T03:11:41;99222.62;;;11.48;82.92
62057;BME280;48016;50.284;18.860;2022-10-17T03:14:08;99223.77;;;11.51;82.95
62057;BME280;48016;50.284;18.860;2022-10-17T03:16:35;99224.55;;;11.53;82.96
62057;BME280;48016;50.284;18.860;2022-10-17T03:19:01;99222.98;;;11.53;82.97
62057;BME280;48016;50.284;18.860;2022-10-17T03:21:28;99216.91;;;11.50;83.03
62057;BME280;48016;50.284;18.860;2022-10-17T03:23:54;99220.17;;;11.45;83.10
62057;BME280;48016;50.284;18.860;2022-10-17T03:26:21;99218.91;;;11.42;82.99
62057;BME280;48016;50.284;18.860;2022-10-17T03:28:47;99223.16;;;11.39;82.98
62057;BME280;48016;50.284;18.860;2022-10-17T03:31:15;99227.67;;;11.37;82.84
62057;BME280;48016;50.284;18.860;2022-10-17T03:33:42;99237.73;;;11.36;82.74
62057;BME280;48016;50.284;18.860;2022-10-17T03:36:11;99239.77;;;11.36;82.99
62057;BME280;48016;50.284;18.860;2022-10-17T03:38:39;99243.91;;;11.37;82.92
62057;BME280;48016;50.284;18.860;2022-10-17T03:41:05;99245.77;;;11.35;82.99
62057;BME280;48016;50.284;18.860;2022-10-17T03:43:32;99242.55;;;11.34;83.08
62057;BME280;48016;50.284;18.860;2022-10-17T03:45:59;99238.03;;;11.30;83.08
62057;BME280;48016;50.284;18.860;2022-10-17T03:48:26;99235.35;;;11.24;83.07
62057;BME280;48016;50.284;18.860;2022-10-17T03:51:01;99234.03;;;11.16;83.13
62057;BME280;48016;50.284;18.860;2022-10-17T03:53:29;99235.52;;;11.10;83.05
62057;BME280;48016;50.284;18.860;2022-10-17T03:55:56;99240.09;;;11.09;83.08
62057;BME280;48016;50.284;18.860;2022-10-17T03:58:22;99236.55;;;11.08;83.13
62057;BME280;48016;50.284;18.860;2022-10-17T04:00:49;99240.98;;;11.07;83.41
62057;BME280;48016;50.284;18.860;2022-10-17T04:03:15;99246.82;;;11.09;83.43
62057;BME280;48016;50.284;18.860;2022-10-17T04:05:42;99252.21;;;11.11;83.49
62057;BME280;48016;50.284;18.860;2022-10-17T04:08:08;99256.92;;;11.11;83.37
62057;BME280;48016;50.284;18.860;2022-10-17T04:10:35;99254.61;;;11.09;83.48
62057;BME280;48016;50.284;18.860;2022-10-17T04:13:01;99259.17;;;11.08;83.41
62057;BME280;48016;50.284;18.860;2022-10-17T04:15:28;99261.79;;;11.08;83.35
62057;BME280;48016;50.284;18.860;2022-10-17T04:17:54;99259.45;;;11.11;83.26
62057;BME280;48016;50.284;18.860;2022-10-17T04:20:21;99257.64;;;11.12;83.43
62057;BME280;48016;50.284;18.860;2022-10-17T04:22:47;99258.77;;;11.14;83.34
62057;BME280;48016;50.284;18.860;2022-10-17T04:25:14;99260.34;;;11.12;83.36
62057;BME280;48016;50.284;18.860;2022-10-17T04:27:40;99261.50;;;11.08;83.29
62057;BME280;48016;50.284;18.860;2022-10-17T04:30:07;99265.35;;;11.04;83.39
62057;BME280;48016;50.284;18.860;2022-10-17T04:32:37;99265.05;;;11.02;83.25
62057;BME280;48016;50.284;18.860;2022-10-17T04:35:04;99265.64;;;11.02;83.17
62057;BME280;48016;50.284;18.860;2022-10-17T04:37:31;99263.55;;;11.03;83.39
62057;BME280;48016;50.284;18.860;2022-10-17T04:39:57;99266.84;;;11.02;83.49
62057;BME280;48016;50.284;18.860;2022-10-17T04:42:24;99271.73;;;11.03;83.62
62057;BME280;48016;50.284;18.860;2022-10-17T04:44:51;99270.46;;;11.05;83.73
62057;BME280;48016;50.284;18.860;2022-10-17T04:47:17;99267.54;;;11.05;83.65
62057;BME280;48016;50.284;18.860;2022-10-17T04:49:44;99270.32;;;11.06;83.62
62057;BME280;48016;50.284;18.860;2022-10-17T04:52:10;99268.17;;;11.04;83.44
62057;BME280;48016;50.284;18.860;2022-10-17T04:54:37;99262.32;;;11.04;83.35
62057;BME280;48016;50.284;18.860;2022-10-17T04:57:03;99263.42;;;11.00;83.32
62057;BME280;48016;50.284;18.860;2022-10-17T04:59:29;99260.06;;;10.93;83.49
62057;BME280;48016;50.284;18.860;2022-10-17T05:01:56;99259.48;;;10.89;83.43
62057;BME280;48016;50.284;18.860;2022-10-17T05:04:22;99258.74;;;10.85;83.54
62057;BME280;48016;50.284;18.860;2022-10-17T05:06:50;99261.64;;;10.84;83.64
62057;BME280;48016;50.284;18.860;2022-10-17T05:09:17;99267.02;;;10.81;83.78
62057;BME280;48016;50.284;18.860;2022-10-17T05:11:43;99269.77;;;10.80;83.86
62057;BME280;48016;50.284;18.860;2022-10-17T05:14:09;99269.73;;;10.81;84.10
62057;BME280;48016;50.284;18.860;2022-10-17T05:16:36;99272.34;;;10.84;84.04
62057;BME280;48016;50.284;18.860;2022-10-17T05:19:02;99274.06;;;10.88;84.00
62057;BME280;48016;50.284;18.860;2022-10-17T05:21:29;99274.02;;;10.93;84.04
62057;BME280;48016;50.284;18.860;2022-10-17T05:23:56;99279.19;;;10.96;83.92
62057;BME280;48016;50.284;18.860;2022-10-17T05:26:24;99281.89;;;10.98;83.94
62057;BME280;48016;50.284;18.860;2022-10-17T05:28:51;99284.80;;;11.02;83.88
62057;BME280;48016;50.284;18.860;2022-10-17T05:31:17;99289.59;;;11.01;84.05
62057;BME280;48016;50.284;18.860;2022-10-17T05:33:44;99292.39;;;11.03;83.97
62057;BME280;48016;50.284;18.860;2022-10-17T05:36:11;99293.98;;;11.05;83.88
62057;BME280;48016;50.284;18.860;2022-10-17T05:38:37;99293.04;;;11.09;83.86
62057;BME280;48016;50.284;18.860;2022-10-17T05:41:04;99298.70;;;11.16;83.78
62057;BME280;48016;50.284;18.860;2022-10-17T05:43:32;99302.61;;;11.21;83.68
62057;BME280;48016;50.284;18.860;2022-10-17T05:46:02;99303.28;;;11.26;83.60
62057;BME280;48016;50.284;18.860;2022-10-17T05:48:29;99300.27;;;11.32;83.59
62057;BME280;48016;50.284;18.860;2022-10-17T05:50:57;99298.44;;;11.37;83.51
62057;BME280;48016;50.284;18.860;2022-10-17T05:53:25;99298.59;;;11.41;83.29
62057;BME280;48016;50.284;18.860;2022-10-17T05:55:59;99302.77;;;11.44;83.30
62057;BME280;48016;50.284;18.860;2022-10-17T05:58:26;99301.86;;;11.44;83.21
62057;BME280;48016;50.284;18.860;2022-10-17T06:01:00;99302.42;;;11.45;83.14
62057;BME280;48016;50.284;18.860;2022-10-17T06:03:27;99306.98;;;11.48;83.14
62057;BME280;48016;50.284;18.860;2022-10-17T06:05:53;99307.36;;;11.55;83.10
62057;BME280;48016;50.284;18.860;2022-10-17T06:08:20;99311.32;;;11.62;83.05
62057;BME280;48016;50.284;18.860;2022-10-17T06:10:48;99316.10;;;11.73;83.04
62057;BME280;48016;50.284;18.860;2022-10-17T06:13:16;99321.81;;;11.89;82.98
62057;BME280;48016;50.284;18.860;2022-10-17T06:15:43;99324.52;;;12.05;82.82
62057;BME280;48016;50.284;18.860;2022-10-17T06:18:10;99323.06;;;12.19;82.75
62057;BME280;48016;50.284;18.860;2022-10-17T06:20:37;99319.91;;;12.36;82.45
62057;BME280;48016;50.284;18.860;2022-10-17T06:23:04;99322.94;;;12.52;82.35
62057;BME280;48016;50.284;18.860;2022-10-17T06:25:31;99327.94;;;12.73;82.16
62057;BME280;48016;50.284;18.860;2022-10-17T06:27:58;99326.53;;;12.98;81.88
62057;BME280;48016;50.284;18.860;2022-10-17T06:30:25;99333.27;;;13.24;81.61
62057;BME280;48016;50.284;18.860;2022-10-17T06:32:52;99334.69;;;13.47;81.34
62057;BME280;48016;50.284;18.860;2022-10-17T06:35:19;99335.92;;;13.69;80.68
62057;BME280;48016;50.284;18.860;2022-10-17T06:37:46;99339.13;;;13.84;80.36
62057;BME280;48016;50.284;18.860;2022-10-17T06:40:12;99345.27;;;13.96;79.46
62057;BME280;48016;50.284;18.860;2022-10-17T06:42:42;99345.41;;;14.06;79.06
62057;BME280;48016;50.284;18.860;2022-10-17T06:45:09;99345.08;;;14.19;78.46
62057;BME280;48016;50.284;18.860;2022-10-17T06:47:36;99348.30;;;14.33;78.40
62057;BME280;48016;50.284;18.860;2022-10-17T06:50:02;99343.07;;;14.46;78.05
62057;BME280;48016;50.284;18.860;2022-10-17T06:52:29;99350.73;;;14.63;77.98
62057;BME280;48016;50.284;18.860;2022-10-17T06:54:56;99355.58;;;14.82;77.61
62057;BME280;48016;50.284;18.860;2022-10-17T06:57:22;99365.90;;;15.03;77.44
62057;BME280;48016;50.284;18.860;2022-10-17T06:59:49;99363.89;;;15.23;76.96
62057;BME280;48016;50.284;18.860;2022-10-17T07:02:15;99369.66;;;15.41;76.13
62057;BME280;48016;50.284;18.860;2022-10-17T07:04:42;99369.42;;;15.53;75.11
62057;BME280;48016;50.284;18.860;2022-10-17T07:07:10;99374.30;;;15.65;74.58
62057;BME280;48016;50.284;18.860;2022-10-17T07:09:37;99372.20;;;15.81;74.15
62057;BME280;48016;50.284;18.860;2022-10-17T07:12:03;99376.19;;;15.98;73.60
62057;BME280;48016;50.284;18.860;2022-10-17T07:14:34;99376.55;;;16.15;72.96
62057;BME280;48016;50.284;18.860;2022-10-17T07:17:01;99378.55;;;16.31;72.68
62057;BME280;48016;50.284;18.860;2022-10-17T07:19:27;99379.86;;;16.47;71.86
62057;BME280;48016;50.284;18.860;2022-10-17T07:21:54;99377.88;;;16.60;71.67
62057;BME280;48016;50.284;18.860;2022-10-17T07:24:20;99380.36;;;16.70;71.16
62057;BME280;48016;50.284;18.860;2022-10-17T07:26:47;99382.78;;;16.81;70.93
62057;BME280;48016;50.284;18.860;2022-10-17T07:29:13;99379.80;;;16.90;70.00
62057;BME280;48016;50.284;18.860;2022-10-17T07:31:40;99384.73;;;16.99;69.56
62057;BME280;48016;50.284;18.860;2022-10-17T07:34:06;99391.36;;;17.05;69.76
62057;BME280;48016;50.284;18.860;2022-10-17T07:36:33;99387.97;;;17.09;68.91
62057;BME280;48016;50.284;18.860;2022-10-17T07:38:59;99383.98;;;17.10;68.97
62057;BME280;48016;50.284;18.860;2022-10-17T07:41:26;99386.89;;;17.15;68.62
62057;BME280;48016;50.284;18.860;2022-10-17T07:43:53;99381.30;;;17.19;68.55
62057;BME280;48016;50.284;18.860;2022-10-17T07:46:19;99383.77;;;17.20;68.07
62057;BME280;48016;50.284;18.860;2022-10-17T07:48:46;99382.84;;;17.23;67.75
62057;BME280;48016;50.284;18.860;2022-10-17T07:51:12;99386.08;;;17.29;67.43
62057;BME280;48016;50.284;18.860;2022-10-17T07:53:39;99388.59;;;17.35;67.33
62057;BME280;48016;50.284;18.860;2022-10-17T07:56:07;99387.83;;;17.46;67.58
62057;BME280;48016;50.284;18.860;2022-10-17T07:58:34;99390.11;;;17.52;67.36
62057;BME280;48016;50.284;18.860;2022-10-17T08:01:06;99388.05;;;17.56;66.94
62057;BME280;48016;50.284;18.860;2022-10-17T08:03:33;99387.70;;;17.65;66.94
62057;BME280;48016;50.284;18.860;2022-10-17T08:06:01;99388.51;;;17.73;66.90
62057;BME280;48016;50.284;18.860;2022-10-17T08:08:28;99386.24;;;17.80;66.66
62057;BME280;48016;50.284;18.860;2022-10-17T08:11:01;99386.61;;;17.86;66.37
62057;BME280;48016;50.284;18.860;2022-10-17T08:13:28;99384.60;;;17.88;66.02
62057;BME280;48016;50.284;18.860;2022-10-17T08:16:00;99383.16;;;17.90;66.16
62057;BME280;48016;50.284;18.860;2022-10-17T08:18:27;99382.55;;;17.98;65.79
62057;BME280;48016;50.284;18.860;2022-10-17T08:20:54;99383.81;;;18.00;65.38
62057;BME280;48016;50.284;18.860;2022-10-17T08:23:20;99381.77;;;18.01;65.13
62057;BME280;48016;50.284;18.860;2022-10-17T08:25:47;99386.95;;;18.04;65.06
62057;BME280;48016;50.284;18.860;2022-10-17T08:28:13;99385.80;;;18.07;64.59
62057;BME280;48016;50.284;18.860;2022-10-17T08:30:40;99391.70;;;18.13;64.77
62057;BME280;48016;50.284;18.860;2022-10-17T08:33:07;99396.71;;;18.21;64.78
62057;BME280;48016;50.284;18.860;2022-10-17T08:35:33;99399.33;;;18.26;64.38
62057;BME280;48016;50.284;18.860;2022-10-17T08:37:59;99401.61;;;18.31;64.68
62057;BME280;48016;50.284;18.860;2022-10-17T08:40:29;99400.00;;;18.37;64.57
62057;BME280;48016;50.284;18.860;2022-10-17T08:43:05;99402.89;;;18.41;64.32
62057;BME280;48016;50.284;18.860;2022-10-17T08:45:55;99407.69;;;18.47;64.09
62057;BME280;48016;50.284;18.860;2022-10-17T08:48:28;99408.66;;;18.50;64.53
62057;BME280;48016;50.284;18.860;2022-10-17T08:50:58;99408.52;;;18.57;64.01
62057;BME280;48016;50.284;18.860;2022-10-17T08:53:35;99407.38;;;18.56;62.92
62057;BME280;48016;50.284;18.860;2022-10-17T08:56:16;99404.92;;;18.53;62.83
62057;BME280;48016;50.284;18.860;2022-10-17T08:58:43;99401.80;;;18.54;62.59
62057;BME280;48016;50.284;18.860;2022-10-17T09:06:31;99398.84;;;18.57;61.87
62057;BME280;48016;50.284;18.860;2022-10-17T09:14:58;99400.13;;;18.70;62.47
62057;BME280;48016;50.284;18.860;2022-10-17T09:17:37;99400.11;;;18.81;61.90
62057;BME280;48016;50.284;18.860;2022-10-17T09:20:15;99395.96;;;18.87;62.24
62057;BME280;48016;50.284;18.860;2022-10-17T09:22:58;99395.96;;;18.96;62.16
62057;BME280;48016;50.284;18.860;2022-10-17T09:25:26;99397.61;;;19.05;62.15
62057;BME280;48016;50.284;18.860;2022-10-17T09:28:01;99397.39;;;19.11;61.99
62057;BME280;48016;50.284;18.860;2022-10-17T09:30:37;99398.85;;;19.17;61.83
62057;BME280;48016;50.284;18.860;2022-10-17T09:35:40;99395.66;;;19.18;59.87
62057;BME280;48016;50.284;18.860;2022-10-17T09:38:19;99397.25;;;19.19;60.11
62057;BME280;48016;50.284;18.860;2022-10-17T09:40:58;99402.42;;;19.24;60.66
62057;BME280;48016;50.284;18.860;2022-10-17T09:43:26;99399.63;;;19.31;60.80
62057;BME280;48016;50.284;18.860;2022-10-17T09:48:48;99400.48;;;19.48;60.57
62057;BME280;48016;50.284;18.860;2022-10-17T09:51:16;99401.10;;;19.53;60.13
62057;BME280;48016;50.284;18.860;2022-10-17T09:53:47;99396.00;;;19.58;59.99
62057;BME280;48016;50.284;18.860;2022-10-17T09:56:18;99401.14;;;19.61;59.20
62057;BME280;48016;50.284;18.860;2022-10-17T09:58:50;99396.80;;;19.65;58.84
62057;BME280;48016;50.284;18.860;2022-10-17T10:01:21;99393.29;;;19.64;58.90
62057;BME280;48016;50.284;18.860;2022-10-17T10:04:09;99398.02;;;19.71;59.18
62057;BME280;48016;50.284;18.860;2022-10-17T10:06:37;99400.52;;;19.78;58.90
62057;BME280;48016;50.284;18.860;2022-10-17T10:09:04;99398.05;;;19.83;59.37
62057;BME280;48016;50.284;18.860;2022-10-17T10:11:53;99401.84;;;19.91;59.16
62057;BME280;48016;50.284;18.860;2022-10-17T10:14:21;99400.95;;;19.96;58.79
62057;BME280;48016;50.284;18.860;2022-10-17T10:16:50;99400.63;;;20.01;59.14
62057;BME280;48016;50.284;18.860;2022-10-17T10:19:34;99398.85;;;20.03;58.24
62057;BME280;48016;50.284;18.860;2022-10-17T10:22:03;99401.23;;;20.06;58.18
62057;BME280;48016;50.284;18.860;2022-10-17T10:24:31;99399.64;;;20.10;58.09
62057;BME280;48016;50.284;18.860;2022-10-17T10:27:01;99400.67;;;20.13;58.04
62057;BME280;48016;50.284;18.860;2022-10-17T10:29:39;99398.69;;;20.19;58.04
62057;BME280;48016;50.284;18.860;2022-10-17T10:32:27;99397.80;;;20.24;57.90
62057;BME280;48016;50.284;18.860;2022-10-17T10:35:02;99394.27;;;20.25;57.17
62057;BME280;48016;50.284;18.860;2022-10-17T10:37:38;99395.84;;;20.27;56.91
62057;BME280;48016;50.284;18.860;2022-10-17T10:40:17;99395.34;;;20.32;57.87
62057;BME280;48016;50.284;18.860;2022-10-17T10:42:52;99390.55;;;20.38;57.99
62057;BME280;48016;50.284;18.860;2022-10-17T10:45:23;99395.20;;;20.45;57.84
62057;BME280;48016;50.284;18.860;2022-10-17T10:47:53;99391.83;;;20.51;57.74
62057;BME280;48016;50.284;18.860;2022-10-17T10:59:05;99382.98;;;20.59;57.10
62057;BME280;48016;50.284;18.860;2022-10-17T11:07:03;99386.61;;;20.62;56.53
62057;BME280;48016;50.284;18.860;2022-10-17T11:12:17;99382.73;;;20.69;56.91
62057;BME280;48016;50.284;18.860;2022-10-17T11:14:52;99377.70;;;20.71;56.57
62057;BME280;48016;50.284;18.860;2022-10-17T11:22:48;99370.20;;;20.77;55.33
62057;BME280;48016;50.284;18.860;2022-10-17T11:25:34;99370.36;;;20.80;56.43
62057;BME280;48016;50.284;18.860;2022-10-17T11:28:03;99369.52;;;20.83;56.57
62057;BME280;48016;50.284;18.860;2022-10-17T11:30:56;99372.31;;;20.86;56.23
62057;BME280;48016;50.284;18.860;2022-10-17T11:33:55;99370.80;;;20.88;56.19
62057;BME280;48016;50.284;18.860;2022-10-17T11:36:23;99364.49;;;20.87;55.86
62057;BME280;48016;50.284;18.860;2022-10-17T11:39:04;99366.83;;;20.86;55.61
62057;BME280;48016;50.284;18.860;2022-10-17T11:42:24;99366.33;;;20.85;55.92
62057;BME280;48016;50.284;18.860;2022-10-17T11:44:37;99368.44;;;20.84;55.64
62057;BME280;48016;50.284;18.860;2022-10-17T11:47:28;99366.07;;;20.85;55.63
62057;BME280;48016;50.284;18.860;2022-10-17T11:50:21;99366.11;;;20.85;55.26
62057;BME280;48016;50.284;18.860;2022-10-17T11:53:04;99368.30;;;20.87;54.83
62057;BME280;48016;50.284;18.860;2022-10-17T11:55:35;99363.91;;;20.86;54.45
62057;BME280;48016;50.284;18.860;2022-10-17T11:58:41;99367.33;;;20.85;54.72
62057;BME280;48016;50.284;18.860;2022-10-17T12:04:16;99359.35;;;20.85;54.77
62057;BME280;48016;50.284;18.860;2022-10-17T12:09:44;99357.23;;;20.89;54.46
62057;BME280;48016;50.284;18.860;2022-10-17T12:12:34;99357.20;;;20.90;54.11
62057;BME280;48016;50.284;18.860;2022-10-17T12:17:54;99352.86;;;20.93;54.90
62057;BME280;48016;50.284;18.860;2022-10-17T12:23:31;99351.45;;;20.96;54.99
62057;BME280;48016;50.284;18.860;2022-10-17T12:25:55;99350.86;;;20.95;54.75
62057;BME280;48016;50.284;18.860;2022-10-17T12:30:57;99345.11;;;20.94;54.99
62057;BME280;48016;50.284;18.860;2022-10-17T12:33:37;99340.52;;;20.93;54.22
62057;BME280;48016;50.284;18.860;2022-10-17T12:38:47;99338.73;;;20.90;54.55
62057;BME280;48016;50.284;18.860;2022-10-17T12:41:14;99343.85;;;20.90;54.75
62057;BME280;48016;50.284;18.860;2022-10-17T12:43:44;99345.04;;;20.91;54.98
62057;BME280;48016;50.284;18.860;2022-10-17T12:54:53;99338.34;;;20.87;55.11
62057;BME280;48016;50.284;18.860;2022-10-17T12:57:30;99338.45;;;20.86;55.29
62057;BME280;48016;50.284;18.860;2022-10-17T13:00:02;99333.81;;;20.85;55.39
62057;BME280;48016;50.284;18.860;2022-10-17T13:02:29;99337.05;;;20.84;55.21
62057;BME280;48016;50.284;18.860;2022-10-17T13:05:02;99336.59;;;20.83;55.52
62057;BME280;48016;50.284;18.860;2022-10-17T13:07:32;99335.16;;;20.79;55.38
62057;BME280;48016;50.284;18.860;2022-10-17T13:10:00;99335.92;;;20.80;55.42
62057;BME280;48016;50.284;18.860;2022-10-17T13:12:33;99338.08;;;20.79;55.29
62057;BME280;48016;50.284;18.860;2022-10-17T13:15:03;99338.65;;;20.77;55.21
62057;BME280;48016;50.284;18.860;2022-10-17T13:17:32;99337.84;;;20.75;55.42
62057;BME280;48016;50.284;18.860;2022-10-17T13:20:00;99340.40;;;20.73;55.57
62057;BME280;48016;50.284;18.860;2022-10-17T13:22:29;99339.11;;;20.71;55.52
62057;BME280;48016;50.284;18.860;2022-10-17T13:25:15;99339.73;;;20.71;55.68
62057;BME280;48016;50.284;18.860;2022-10-17T13:27:42;99332.48;;;20.70;55.72
62057;BME280;48016;50.284;18.860;2022-10-17T13:30:44;99332.99;;;20.68;55.64
62057;BME280;48016;50.284;18.860;2022-10-17T13:33:28;99331.21;;;20.66;55.37
62057;BME280;48016;50.284;18.860;2022-10-17T13:35:56;99326.98;;;20.63;55.37
62057;BME280;48016;50.284;18.860;2022-10-17T13:38:26;99328.31;;;20.62;55.51
62057;BME280;48016;50.284;18.860;2022-10-17T13:40:53;99326.89;;;20.61;55.47
62057;BME280;48016;50.284;18.860;2022-10-17T13:43:21;99326.91;;;20.60;55.76
62057;BME280;48016;50.284;18.860;2022-10-17T13:45:53;99324.62;;;20.58;55.71
62057;BME280;48016;50.284;18.860;2022-10-17T13:48:25;99320.75;;;20.57;55.75
62057;BME280;48016;50.284;18.860;2022-10-17T13:50:55;99321.96;;;20.56;56.14
62057;BME280;48016;50.284;18.860;2022-10-17T13:56:04;99322.26;;;20.55;55.95
62057;BME280;48016;50.284;18.860;2022-10-17T13:58:40;99325.95;;;20.52;55.74
62057;BME280;48016;50.284;18.860;2022-10-17T14:01:08;99324.38;;;20.51;55.64
62057;BME280;48016;50.284;18.860;2022-10-17T14:03:35;99322.20;;;20.49;55.83
62057;BME280;48016;50.284;18.860;2022-10-17T14:09:06;99318.03;;;20.44;56.07
62057;BME280;48016;50.284;18.860;2022-10-17T14:11:43;99317.16;;;20.40;55.98
62057;BME280;48016;50.284;18.860;2022-10-17T14:14:19;99318.38;;;20.39;56.37
62057;BME280;48016;50.284;18.860;2022-10-17T14:16:47;99318.59;;;20.35;56.22
62057;BME280;48016;50.284;18.860;2022-10-17T14:19:22;99313.95;;;20.31;56.29
62057;BME280;48016;50.284;18.860;2022-10-17T14:22:17;99315.73;;;20.26;56.43
62057;BME280;48016;50.284;18.860;2022-10-17T14:24:50;99314.00;;;20.24;56.77
62057;BME280;48016;50.284;18.860;2022-10-17T14:27:25;99308.17;;;20.20;56.67
62057;BME280;48016;50.284;18.860;2022-10-17T14:29:54;99311.66;;;20.17;56.62
62057;BME280;48016;50.284;18.860;2022-10-17T14:32:23;99312.44;;;20.13;56.72
62057;BME280;48016;50.284;18.860;2022-10-17T14:34:54;99315.01;;;20.09;56.77
62057;BME280;48016;50.284;18.860;2022-10-17T14:37:38;99316.77;;;20.05;56.88
62057;BME280;48016;50.284;18.860;2022-10-17T14:40:06;99319.33;;;20.01;56.90
62057;BME280;48016;50.284;18.860;2022-10-17T14:42:38;99319.33;;;19.96;56.97
62057;BME280;48016;50.284;18.860;2022-10-17T14:45:08;99321.40;;;19.93;56.93
62057;BME280;48016;50.284;18.860;2022-10-17T14:47:38;99319.09;;;19.89;57.20
62057;BME280;48016;50.284;18.860;2022-10-17T14:50:27;99324.67;;;19.84;57.32
62057;BME280;48016;50.284;18.860;2022-10-17T14:53:04;99320.27;;;19.75;57.81